sensor_id;sensor_type;location;lat;lon;timestamp;pressure;altitude;pressure_sealevel;temperature;humidity
77739;BME280;66904;59.926;30.404;2024-02-21T00:04:45;101644.31;;;-0.70;59.95
77739;BME280;66904;59.926;30.404;2024-02-21T00:09:56;101640.03;;;-0.74;59.92
77739;BME280;66904;59.926;30.404;2024-02-21T00:15:07;101643.53;;;-0.78;59.63
77739;BME280;66904;59.926;30.404;2024-02-21T00:20:18;101638.38;;;-0.82;59.72
77739;BME280;66904;59.926;30.404;2024-02-21T00:25:29;101634.16;;;-0.89;59.97
77739;BME280;66904;59.926;30.404;2024-02-21T00:30:39;101634.31;;;-1.00;59.91
77739;BME280;66904;59.926;30.404;2024-02-21T00:35:50;101632.66;;;-1.09;60.36
77739;BME280;66904;59.926;30.404;2024-02-21T00:41:01;101636.28;;;-1.22;60.03
77739;BME280;66904;59.926;30.404;2024-02-21T00:46:11;101625.97;;;-1.26;60.13
77739;BME280;66904;59.926;30.404;2024-02-21T00:51:22;101622.59;;;-1.34;60.24
77739;BME280;66904;59.926;30.404;2024-02-21T00:56:33;101637.38;;;-1.41;60.10
77739;BME280;66904;59.926;30.404;2024-02-21T01:01:44;101626.19;;;-1.47;60.18
77739;BME280;66904;59.926;30.404;2024-02-21T01:06:55;101618.47;;;-1.53;60.66
77739;BME280;66904;59.926;30.404;2024-02-21T01:12:05;101617.63;;;-1.56;60.41
77739;BME280;66904;59.926;30.404;2024-02-21T01:17:16;101613.28;;;-1.53;60.46
77739;BME280;66904;59.926;30.404;2024-02-21T01:22:27;101613.25;;;-1.52;60.33
77739;BME280;66904;59.926;30.404;2024-02-21T01:27:39;101616.72;;;-1.50;60.40
77739;BME280;66904;59.926;30.404;2024-02-21T01:32:49;101610.72;;;-1.57;60.81
77739;BME280;66904;59.926;30.404;2024-02-21T01:38:00;101602.94;;;-1.58;60.38
77739;BME280;66904;59.926;30.404;2024-02-21T01:43:19;101619.38;;;-1.56;61.00
77739;BME280;66904;59.926;30.404;2024-02-21T01:48:30;101610.72;;;-1.58;60.85
77739;BME280;66904;59.926;30.404;2024-02-21T01:53:44;101616.59;;;-1.41;61.01
77739;BME280;66904;59.926;30.404;2024-02-21T01:58:55;101630.22;;;-1.21;61.01
77739;BME280;66904;59.926;30.404;2024-02-21T02:04:06;101624.88;;;-1.09;60.59
77739;BME280;66904;59.926;30.404;2024-02-21T02:09:18;101623.94;;;-1.01;60.67
77739;BME280;66904;59.926;30.404;2024-02-21T02:14:28;101613.50;;;-0.97;60.55
77739;BME280;66904;59.926;30.404;2024-02-21T02:19:39;101611.72;;;-0.93;60.51
77739;BME280;66904;59.926;30.404;2024-02-21T02:24:50;101616.88;;;-0.92;60.44
77739;BME280;66904;59.926;30.404;2024-02-21T02:30:00;101608.38;;;-1.03;60.19
77739;BME280;66904;59.926;30.404;2024-02-21T02:35:12;101605.84;;;-1.08;60.47
77739;BME280;66904;59.926;30.404;2024-02-21T02:40:23;101622.28;;;-1.09;60.54
77739;BME280;66904;59.926;30.404;2024-02-21T02:45:35;101613.56;;;-1.03;60.73
77739;BME280;66904;59.926;30.404;2024-02-21T02:50:45;101613.53;;;-1.00;60.56
77739;BME280;66904;59.926;30.404;2024-02-21T02:55:57;101609.22;;;-1.02;60.40
77739;BME280;66904;59.926;30.404;2024-02-21T03:01:07;101606.69;;;-1.07;60.76
77739;BME280;66904;59.926;30.404;2024-02-21T03:06:18;101610.19;;;-1.11;60.12
77739;BME280;66904;59.926;30.404;2024-02-21T03:11:29;101605.06;;;-1.14;60.60
77739;BME280;66904;59.926;30.404;2024-02-21T03:16:39;101598.22;;;-1.21;60.52
77739;BME280;66904;59.926;30.404;2024-02-21T03:21:51;101608.63;;;-1.23;60.33
77739;BME280;66904;59.926;30.404;2024-02-21T03:27:02;101612.13;;;-1.28;60.87
77739;BME280;66904;59.926;30.404;2024-02-21T03:32:14;101611.31;;;-1.32;60.39
77739;BME280;66904;59.926;30.404;2024-02-21T03:37:25;101618.25;;;-1.35;60.64
77739;BME280;66904;59.926;30.404;2024-02-21T03:42:35;101609.66;;;-1.39;60.60
77739;BME280;66904;59.926;30.404;2024-02-21T03:47:46;101614.00;;;-1.39;60.82
77739;BME280;66904;59.926;30.404;2024-02-21T03:52:57;101598.56;;;-1.50;60.20
77739;BME280;66904;59.926;30.404;2024-02-21T03:58:08;101608.03;;;-1.49;60.88
77739;BME280;66904;59.926;30.404;2024-02-21T04:03:18;101593.44;;;-1.58;60.69
77739;BME280;66904;59.926;30.404;2024-02-21T04:08:30;101604.69;;;-1.57;60.59
77739;BME280;66904;59.926;30.404;2024-02-21T04:13:40;101597.75;;;-1.57;60.66
77739;BME280;66904;59.926;30.404;2024-02-21T04:18:51;101593.44;;;-1.56;60.69
77739;BME280;66904;59.926;30.404;2024-02-21T04:24:03;101596.81;;;-1.51;60.36
77739;BME280;66904;59.926;30.404;2024-02-21T04:29:15;101598.47;;;-1.45;60.75
77739;BME280;66904;59.926;30.404;2024-02-21T04:34:26;101596.63;;;-1.36;60.56
77739;BME280;66904;59.926;30.404;2024-02-21T04:39:37;101598.25;;;-1.26;60.59
77739;BME280;66904;59.926;30.404;2024-02-21T04:44:47;101598.25;;;-1.26;60.26
77739;BME280;66904;59.926;30.404;2024-02-21T04:49:58;101600.06;;;-1.29;60.68
77739;BME280;66904;59.926;30.404;2024-02-21T04:55:09;101595.66;;;-1.24;60.48
77739;BME280;66904;59.926;30.404;2024-02-21T05:00:20;101600.75;;;-1.18;60.55
77739;BME280;66904;59.926;30.404;2024-02-21T05:05:30;101594.81;;;-1.26;60.72
77739;BME280;66904;59.926;30.404;2024-02-21T05:10:41;101607.84;;;-1.29;60.52
77739;BME280;66904;59.926;30.404;2024-02-21T05:15:52;101602.84;;;-1.46;60.22
77739;BME280;66904;59.926;30.404;2024-02-21T05:21:03;101606.50;;;-1.68;60.77
77739;BME280;66904;59.926;30.404;2024-02-21T05:26:21;101603.13;;;-1.73;nan
77739;BME280;66904;59.926;30.404;2024-02-21T05:37:01;101608.25;;;-1.67;60.88
77739;BME280;66904;59.926;30.404;2024-02-21T05:42:12;101603.91;;;-1.67;60.89
77739;BME280;66904;59.926;30.404;2024-02-21T05:47:23;101607.41;;;-1.69;60.31
77739;BME280;66904;59.926;30.404;2024-02-21T05:52:34;101598.78;;;-1.73;60.77
77739;BME280;66904;59.926;30.404;2024-02-21T05:57:44;101602.00;;;-1.49;61.11
77739;BME280;66904;59.926;30.404;2024-02-21T06:02:55;101594.84;;;-1.28;60.97
77739;BME280;66904;59.926;30.404;2024-02-21T06:08:06;101586.03;;;-1.15;61.10
77739;BME280;66904;59.926;30.404;2024-02-21T06:13:17;101603.84;;;-0.89;61.04
77739;BME280;66904;59.926;30.404;2024-02-21T06:18:28;101601.94;;;-0.75;60.69
77739;BME280;66904;59.926;30.404;2024-02-21T06:23:38;101581.19;;;-0.76;60.89
77739;BME280;66904;59.926;30.404;2024-02-21T06:28:49;101595.63;;;-0.59;61.25
77739;BME280;66904;59.926;30.404;2024-02-21T06:34:00;101611.03;;;-0.45;60.82
77739;BME280;66904;59.926;30.404;2024-02-21T06:39:10;101604.00;;;-0.38;60.69
77739;BME280;66904;59.926;30.404;2024-02-21T06:44:21;101612.44;;;-0.24;60.62
77739;BME280;66904;59.926;30.404;2024-02-21T06:49:32;101608.88;;;-0.17;60.72
77739;BME280;66904;59.926;30.404;2024-02-21T06:54:43;101605.31;;;-0.10;60.51
77739;BME280;66904;59.926;30.404;2024-02-21T06:59:54;101599.09;;;-0.03;60.36
77739;BME280;66904;59.926;30.404;2024-02-21T07:05:05;101598.16;;;0.01;60.91
77739;BME280;66904;59.926;30.404;2024-02-21T07:10:16;101602.50;;;0.02;60.94
77739;BME280;66904;59.926;30.404;2024-02-21T07:15:26;101602.38;;;0.08;60.62
77739;BME280;66904;59.926;30.404;2024-02-21T07:20:38;101601.41;;;0.14;60.84
77739;BME280;66904;59.926;30.404;2024-02-21T07:25:51;101602.25;;;0.14;60.52
77739;BME280;66904;59.926;30.404;2024-02-21T07:31:02;101596.47;;;-0.02;60.08
77739;BME280;66904;59.926;30.404;2024-02-21T07:36:15;101607.16;;;-0.17;60.64
77739;BME280;66904;59.926;30.404;2024-02-21T07:41:26;101595.28;;;-0.34;60.66
77739;BME280;66904;59.926;30.404;2024-02-21T07:46:38;101596.00;;;-0.26;61.05
77739;BME280;66904;59.926;30.404;2024-02-21T07:51:49;101593.28;;;-0.19;60.90
77739;BME280;66904;59.926;30.404;2024-02-21T07:57:00;101598.38;;;-0.11;60.62
77739;BME280;66904;59.926;30.404;2024-02-21T08:02:10;101596.59;;;-0.09;60.51
77739;BME280;66904;59.926;30.404;2024-02-21T08:07:21;101597.56;;;-0.15;60.50
77739;BME280;66904;59.926;30.404;2024-02-21T08:12:32;101591.53;;;-0.17;60.93
77739;BME280;66904;59.926;30.404;2024-02-21T08:17:43;101581.09;;;-0.15;61.14
77739;BME280;66904;59.926;30.404;2024-02-21T08:22:53;101580.75;;;0.05;60.80
77739;BME280;66904;59.926;30.404;2024-02-21T08:28:05;101582.19;;;0.21;60.62
77739;BME280;66904;59.926;30.404;2024-02-21T08:33:16;101568.94;;;0.36;60.84
77739;BME280;66904;59.926;30.404;2024-02-21T08:38:30;101564.31;;;0.50;60.61
77739;BME280;66904;59.926;30.404;2024-02-21T08:43:40;101570.66;;;0.35;60.79
77739;BME280;66904;59.926;30.404;2024-02-21T08:48:51;101569.81;;;0.33;60.59
77739;BME280;66904;59.926;30.404;2024-02-21T08:54:02;101574.31;;;0.25;61.38
77739;BME280;66904;59.926;30.404;2024-02-21T08:59:13;101567.63;;;0.12;60.71
77739;BME280;66904;59.926;30.404;2024-02-21T09:04:25;101571.16;;;0.08;61.33
77739;BME280;66904;59.926;30.404;2024-02-21T09:09:36;101565.16;;;0.05;60.91
77739;BME280;66904;59.926;30.404;2024-02-21T09:14:48;101562.56;;;0.05;61.67
77739;BME280;66904;59.926;30.404;2024-02-21T09:20:01;101560.69;;;0.11;61.07
77739;BME280;66904;59.926;30.404;2024-02-21T09:25:14;101557.28;;;0.08;61.34
77739;BME280;66904;59.926;30.404;2024-02-21T09:30:25;101556.50;;;0.04;61.53
77739;BME280;66904;59.926;30.404;2024-02-21T09:35:36;101550.34;;;0.10;61.95
77739;BME280;66904;59.926;30.404;2024-02-21T09:40:47;101546.53;;;0.27;61.91
77739;BME280;66904;59.926;30.404;2024-02-21T09:45:59;101551.66;;;0.30;61.78
77739;BME280;66904;59.926;30.404;2024-02-21T09:51:10;101552.47;;;0.35;61.60
77739;BME280;66904;59.926;30.404;2024-02-21T09:56:21;101536.06;;;0.30;61.49
77739;BME280;66904;59.926;30.404;2024-02-21T10:01:32;101541.13;;;0.39;61.97
77739;BME280;66904;59.926;30.404;2024-02-21T10:06:43;101540.13;;;0.43;61.82
77739;BME280;66904;59.926;30.404;2024-02-21T10:11:55;101528.06;;;0.41;61.80
77739;BME280;66904;59.926;30.404;2024-02-21T10:17:05;101533.19;;;0.44;61.97
77739;BME280;66904;59.926;30.404;2024-02-21T10:22:19;101529.66;;;0.48;62.29
77739;BME280;66904;59.926;30.404;2024-02-21T10:27:34;101531.91;;;0.65;62.42
77739;BME280;66904;59.926;30.404;2024-02-21T10:32:53;101524.19;;;0.60;62.18
77739;BME280;66904;59.926;30.404;2024-02-21T10:38:04;101524.31;;;0.54;62.16
77739;BME280;66904;59.926;30.404;2024-02-21T10:43:15;101523.53;;;0.50;62.12
77739;BME280;66904;59.926;30.404;2024-02-21T10:48:38;101522.78;;;0.45;62.56
77739;BME280;66904;59.926;30.404;2024-02-21T10:54:30;101522.66;;;0.50;62.19
77739;BME280;66904;59.926;30.404;2024-02-21T10:59:48;101514.03;;;0.46;62.08
77739;BME280;66904;59.926;30.404;2024-02-21T11:04:58;101508.75;;;0.52;62.99
77739;BME280;66904;59.926;30.404;2024-02-21T11:10:23;101510.44;;;0.53;62.88
77739;BME280;66904;59.926;30.404;2024-02-21T11:15:34;101503.69;;;0.43;63.03
77739;BME280;66904;59.926;30.404;2024-02-21T11:20:49;101500.94;;;0.51;62.45
77739;BME280;66904;59.926;30.404;2024-02-21T11:26:07;101501.75;;;0.55;62.84
77739;BME280;66904;59.926;30.404;2024-02-21T11:31:18;101511.38;;;0.51;62.76
77739;BME280;66904;59.926;30.404;2024-02-21T11:36:29;101489.63;;;0.53;63.15
77739;BME280;66904;59.926;30.404;2024-02-21T11:41:39;101491.38;;;0.53;63.16
77739;BME280;66904;59.926;30.404;2024-02-21T11:46:50;101480.06;;;0.56;63.75
77739;BME280;66904;59.926;30.404;2024-02-21T11:52:02;101475.66;;;0.58;62.86
77739;BME280;66904;59.926;30.404;2024-02-21T11:57:14;101469.38;;;0.68;63.46
77739;BME280;66904;59.926;30.404;2024-02-21T12:02:26;101470.00;;;0.77;63.40
77739;BME280;66904;59.926;30.404;2024-02-21T12:07:37;101468.84;;;0.92;63.57
77739;BME280;66904;59.926;30.404;2024-02-21T12:12:51;101470.03;;;1.16;63.01
77739;BME280;66904;59.926;30.404;2024-02-21T12:18:02;101473.97;;;1.32;63.05
77739;BME280;66904;59.926;30.404;2024-02-21T12:23:13;101468.00;;;1.27;62.78
77739;BME280;66904;59.926;30.404;2024-02-21T12:28:24;101471.50;;;1.26;63.48
77739;BME280;66904;59.926;30.404;2024-02-21T12:33:34;101466.47;;;1.18;63.80
77739;BME280;66904;59.926;30.404;2024-02-21T12:38:45;101456.84;;;1.22;63.15
77739;BME280;66904;59.926;30.404;2024-02-21T12:43:57;101454.19;;;1.23;63.16
77739;BME280;66904;59.926;30.404;2024-02-21T12:49:08;101453.28;;;1.26;63.66
77739;BME280;66904;59.926;30.404;2024-02-21T12:54:18;101457.00;;;1.14;63.29
77739;BME280;66904;59.926;30.404;2024-02-21T12:59:30;101451.19;;;1.03;63.86
77739;BME280;66904;59.926;30.404;2024-02-21T13:04:40;101449.44;;;1.03;63.80
77739;BME280;66904;59.926;30.404;2024-02-21T13:09:51;101450.41;;;0.99;64.16
77739;BME280;66904;59.926;30.404;2024-02-21T13:15:03;101447.22;;;0.88;64.22
77739;BME280;66904;59.926;30.404;2024-02-21T13:20:14;101458.50;;;0.89;63.75
77739;BME280;66904;59.926;30.404;2024-02-21T13:25:26;101446.41;;;0.85;63.70
77739;BME280;66904;59.926;30.404;2024-02-21T13:30:36;101444.84;;;0.78;64.08
77739;BME280;66904;59.926;30.404;2024-02-21T13:35:47;101438.69;;;0.80;64.80
77739;BME280;66904;59.926;30.404;2024-02-21T13:40:58;101426.13;;;0.99;64.24
77739;BME280;66904;59.926;30.404;2024-02-21T13:46:10;101420.38;;;1.20;64.36
77739;BME280;66904;59.926;30.404;2024-02-21T13:51:21;101420.19;;;1.28;63.97
77739;BME280;66904;59.926;30.404;2024-02-21T13:56:32;101408.13;;;1.24;64.04
77739;BME280;66904;59.926;30.404;2024-02-21T14:01:43;101409.03;;;1.23;63.86
77739;BME280;66904;59.926;30.404;2024-02-21T14:06:54;101414.03;;;1.32;64.22
77739;BME280;66904;59.926;30.404;2024-02-21T14:12:05;101413.91;;;1.36;63.63
77739;BME280;66904;59.926;30.404;2024-02-21T14:17:18;101412.50;;;1.23;64.30
77739;BME280;66904;59.926;30.404;2024-02-21T14:22:30;101407.50;;;1.16;64.50
77739;BME280;66904;59.926;30.404;2024-02-21T14:27:41;101411.91;;;1.12;64.60
77739;BME280;66904;59.926;30.404;2024-02-21T14:32:52;101404.84;;;1.17;64.15
77739;BME280;66904;59.926;30.404;2024-02-21T14:38:02;101405.94;;;1.07;63.73
77739;BME280;66904;59.926;30.404;2024-02-21T14:43:13;101402.56;;;1.03;64.55
77739;BME280;66904;59.926;30.404;2024-02-21T14:48:24;101406.25;;;0.95;64.59
77739;BME280;66904;59.926;30.404;2024-02-21T14:53:36;101410.03;;;0.82;64.72
77739;BME280;66904;59.926;30.404;2024-02-21T14:58:47;101402.38;;;0.74;64.87
77739;BME280;66904;59.926;30.404;2024-02-21T15:03:58;101401.59;;;0.71;64.87
77739;BME280;66904;59.926;30.404;2024-02-21T15:09:08;101397.94;;;0.79;64.81
77739;BME280;66904;59.926;30.404;2024-02-21T15:14:19;101397.81;;;0.84;64.03
77739;BME280;66904;59.926;30.404;2024-02-21T15:19:33;101386.44;;;0.88;64.34
77739;BME280;66904;59.926;30.404;2024-02-21T15:24:44;101396.47;;;1.04;64.82
77739;BME280;66904;59.926;30.404;2024-02-21T15:29:58;101394.75;;;1.03;64.42
77739;BME280;66904;59.926;30.404;2024-02-21T15:35:10;101395.78;;;0.96;64.61
77739;BME280;66904;59.926;30.404;2024-02-21T15:40:21;101389.88;;;0.90;64.43
77739;BME280;66904;59.926;30.404;2024-02-21T15:45:32;101401.22;;;0.87;64.02
77739;BME280;66904;59.926;30.404;2024-02-21T15:50:42;101397.00;;;0.82;65.09
77739;BME280;66904;59.926;30.404;2024-02-21T15:55:53;101400.66;;;0.73;64.53
77739;BME280;66904;59.926;30.404;2024-02-21T16:01:04;101389.69;;;0.61;64.82
77739;BME280;66904;59.926;30.404;2024-02-21T16:06:15;101392.41;;;0.56;64.84
77739;BME280;66904;59.926;30.404;2024-02-21T16:11:26;101385.28;;;0.64;65.58
77739;BME280;66904;59.926;30.404;2024-02-21T16:16:37;101370.50;;;0.66;64.37
77739;BME280;66904;59.926;30.404;2024-02-21T16:21:50;101382.28;;;0.81;64.76
77739;BME280;66904;59.926;30.404;2024-02-21T16:27:01;101378.53;;;0.92;64.51
77739;BME280;66904;59.926;30.404;2024-02-21T16:32:19;101377.59;;;0.95;64.74
77739;BME280;66904;59.926;30.404;2024-02-21T16:37:30;101376.91;;;0.87;65.21
77739;BME280;66904;59.926;30.404;2024-02-21T16:42:40;101378.78;;;0.82;64.81
77739;BME280;66904;59.926;30.404;2024-02-21T16:47:51;101376.06;;;0.86;64.95
77739;BME280;66904;59.926;30.404;2024-02-21T16:53:02;101373.50;;;0.85;65.27
77739;BME280;66904;59.926;30.404;2024-02-21T16:58:14;101354.00;;;0.66;65.29
77739;BME280;66904;59.926;30.404;2024-02-21T17:03:26;101363.63;;;0.62;64.84
77739;BME280;66904;59.926;30.404;2024-02-21T17:08:36;101365.47;;;0.57;65.31
77739;BME280;66904;59.926;30.404;2024-02-21T17:13:47;101367.28;;;0.53;65.24
77739;BME280;66904;59.926;30.404;2024-02-21T17:18:58;101350.94;;;0.48;64.99
77739;BME280;66904;59.926;30.404;2024-02-21T17:24:09;101355.28;;;0.46;65.41
77739;BME280;66904;59.926;30.404;2024-02-21T17:29:20;101346.66;;;0.46;65.86
77739;BME280;66904;59.926;30.404;2024-02-21T17:34:31;101339.66;;;0.48;65.83
77739;BME280;66904;59.926;30.404;2024-02-21T17:39:41;101350.69;;;0.59;65.93
77739;BME280;66904;59.926;30.404;2024-02-21T17:44:52;101332.25;;;0.67;65.43
77739;BME280;66904;59.926;30.404;2024-02-21T17:50:04;101340.72;;;0.76;65.33
77739;BME280;66904;59.926;30.404;2024-02-21T17:55:15;101337.16;;;0.80;65.83
77739;BME280;66904;59.926;30.404;2024-02-21T18:00:26;101327.66;;;0.79;65.38
77739;BME280;66904;59.926;30.404;2024-02-21T18:05:40;101325.84;;;0.81;65.44
77739;BME280;66904;59.926;30.404;2024-02-21T18:10:50;101318.84;;;0.83;66.09
77739;BME280;66904;59.926;30.404;2024-02-21T18:16:03;101318.63;;;0.92;65.38
77739;BME280;66904;59.926;30.404;2024-02-21T18:21:14;101313.63;;;0.83;65.61
77739;BME280;66904;59.926;30.404;2024-02-21T18:26:25;101305.78;;;0.85;65.51
77739;BME280;66904;59.926;30.404;2024-02-21T18:31:35;101309.22;;;0.87;65.63
77739;BME280;66904;59.926;30.404;2024-02-21T18:36:48;101290.97;;;0.87;66.12
77739;BME280;66904;59.926;30.404;2024-02-21T18:41:58;101290.81;;;0.93;65.95
77739;BME280;66904;59.926;30.404;2024-02-21T18:47:09;101292.53;;;0.94;65.92
77739;BME280;66904;59.926;30.404;2024-02-21T18:52:20;101293.72;;;0.82;65.75
77739;BME280;66904;59.926;30.404;2024-02-21T18:57:31;101291.19;;;0.79;66.32
77739;BME280;66904;59.926;30.404;2024-02-21T19:02:43;101281.66;;;0.78;66.15
77739;BME280;66904;59.926;30.404;2024-02-21T19:07:54;101279.00;;;0.80;65.89
77739;BME280;66904;59.926;30.404;2024-02-21T19:13:05;101273.06;;;0.75;66.59
77739;BME280;66904;59.926;30.404;2024-02-21T19:18:15;101263.53;;;0.74;66.28
77739;BME280;66904;59.926;30.404;2024-02-21T19:23:26;101262.72;;;0.72;66.52
77739;BME280;66904;59.926;30.404;2024-02-21T19:28:38;101254.84;;;0.75;65.70
77739;BME280;66904;59.926;30.404;2024-02-21T19:33:50;101252.41;;;0.69;66.32
77739;BME280;66904;59.926;30.404;2024-02-21T19:39:00;101252.44;;;0.67;66.21
77739;BME280;66904;59.926;30.404;2024-02-21T19:44:11;101239.31;;;0.72;66.63
77739;BME280;66904;59.926;30.404;2024-02-21T19:49:22;101240.00;;;0.78;66.67
77739;BME280;66904;59.926;30.404;2024-02-21T19:54:34;101224.56;;;0.71;66.79
77739;BME280;66904;59.926;30.404;2024-02-21T19:59:45;101211.72;;;0.65;66.08
77739;BME280;66904;59.926;30.404;2024-02-21T20:04:55;101217.69;;;0.68;66.69
77739;BME280;66904;59.926;30.404;2024-02-21T20:10:07;101206.44;;;0.68;66.65
77739;BME280;66904;59.926;30.404;2024-02-21T20:15:18;101210.69;;;0.70;66.42
77739;BME280;66904;59.926;30.404;2024-02-21T20:20:28;101209.03;;;0.68;66.02
77739;BME280;66904;59.926;30.404;2024-02-21T20:25:41;101222.94;;;0.67;66.40
77739;BME280;66904;59.926;30.404;2024-02-21T20:30:52;101205.66;;;0.64;66.95
77739;BME280;66904;59.926;30.404;2024-02-21T20:36:03;101213.47;;;0.64;66.71
77739;BME280;66904;59.926;30.404;2024-02-21T20:41:19;101210.94;;;0.61;67.02
77739;BME280;66904;59.926;30.404;2024-02-21T20:46:30;101211.88;;;0.59;67.09
77739;BME280;66904;59.926;30.404;2024-02-21T20:51:40;101204.00;;;0.60;66.81
77739;BME280;66904;59.926;30.404;2024-02-21T20:56:51;101201.63;;;0.52;67.19
77739;BME280;66904;59.926;30.404;2024-02-21T21:02:02;101188.47;;;0.57;67.08
77739;BME280;66904;59.926;30.404;2024-02-21T21:07:13;101184.81;;;0.64;67.02
77739;BME280;66904;59.926;30.404;2024-02-21T21:12:23;101182.06;;;0.70;67.08
77739;BME280;66904;59.926;30.404;2024-02-21T21:17:34;101188.97;;;0.73;67.21
77739;BME280;66904;59.926;30.404;2024-02-21T21:22:45;101189.91;;;0.69;67.20
77739;BME280;66904;59.926;30.404;2024-02-21T21:27:56;101198.63;;;0.68;67.36
77739;BME280;66904;59.926;30.404;2024-02-21T21:33:07;101191.75;;;0.65;66.62
77739;BME280;66904;59.926;30.404;2024-02-21T21:38:18;101187.50;;;0.61;66.90
77739;BME280;66904;59.926;30.404;2024-02-21T21:43:31;101190.13;;;0.61;66.42
77739;BME280;66904;59.926;30.404;2024-02-21T21:48:42;101191.91;;;0.59;67.21
77739;BME280;66904;59.926;30.404;2024-02-21T21:53:53;101175.47;;;0.57;67.49
77739;BME280;66904;59.926;30.404;2024-02-21T21:59:04;101167.81;;;0.51;67.26
77739;BME280;66904;59.926;30.404;2024-02-21T22:04:15;101169.66;;;0.47;67.67
77739;BME280;66904;59.926;30.404;2024-02-21T22:09:26;101169.69;;;0.46;67.28
77739;BME280;66904;59.926;30.404;2024-02-21T22:14:36;101164.34;;;0.52;67.60
77739;BME280;66904;59.926;30.404;2024-02-21T22:19:47;101144.22;;;0.57;67.10
77739;BME280;66904;59.926;30.404;2024-02-21T22:24:58;101139.72;;;0.64;67.63
77739;BME280;66904;59.926;30.404;2024-02-21T22:30:09;101135.94;;;0.75;67.57
77739;BME280;66904;59.926;30.404;2024-02-21T22:35:21;101134.09;;;0.79;67.24
77739;BME280;66904;59.926;30.404;2024-02-21T22:40:32;101123.53;;;0.83;67.53
77739;BME280;66904;59.926;30.404;2024-02-21T22:45:42;101121.63;;;0.90;67.40
77739;BME280;66904;59.926;30.404;2024-02-21T22:50:53;101115.59;;;0.89;67.37
77739;BME280;66904;59.926;30.404;2024-02-21T22:56:04;101112.16;;;0.87;67.26
77739;BME280;66904;59.926;30.404;2024-02-21T23:01:15;101111.28;;;0.88;67.58
77739;BME280;66904;59.926;30.404;2024-02-21T23:06:27;101106.25;;;0.82;67.06
77739;BME280;66904;59.926;30.404;2024-02-21T23:11:38;101093.06;;;0.87;67.22
77739;BME280;66904;59.926;30.404;2024-02-21T23:16:49;101091.03;;;0.98;67.01
77739;BME280;66904;59.926;30.404;2024-02-21T23:21:59;101080.28;;;1.09;67.28
77739;BME280;66904;59.926;30.404;2024-02-21T23:27:11;101092.41;;;1.10;67.17
77739;BME280;66904;59.926;30.404;2024-02-21T23:32:22;101092.75;;;0.97;67.52
77739;BME280;66904;59.926;30.404;2024-02-21T23:37:33;101079.03;;;0.92;66.74
77739;BME280;66904;59.926;30.404;2024-02-21T23:42:43;101078.19;;;0.92;67.59
77739;BME280;66904;59.926;30.404;2024-02-21T23:47:55;101073.69;;;0.97;67.38
77739;BME280;66904;59.926;30.404;2024-02-21T23:53:05;101072.69;;;1.01;67.22
77739;BME280;66904;59.926;30.404;2024-02-21T23:58:16;101067.38;;;1.06;67.55
